createdAt,value
2022-07-28T00:00:00.341Z,17.6
2022-07-28T00:01:00.401Z,17.7
2022-07-28T00:02:00.507Z,17.8
2022-07-28T00:03:00.619Z,17.8
2022-07-28T00:04:00.700Z,17.7
2022-07-28T00:05:00.755Z,17.6
2022-07-28T00:06:00.805Z,17.5
2022-07-28T00:07:00.856Z,17.6
2022-07-28T00:08:01.053Z,17.7
2022-07-28T00:09:00.114Z,17.8
2022-07-28T00:10:00.865Z,17.7
2022-07-28T00:11:00.114Z,17.6
2022-07-28T00:12:00.178Z,17.5
2022-07-28T00:13:00.233Z,17.3
2022-07-28T00:14:00.562Z,17.4
2022-07-28T00:15:00.632Z,17.6
2022-07-28T00:16:00.728Z,17.7
2022-07-28T00:17:00.813Z,17.5
2022-07-28T00:18:00.874Z,17.3
2022-07-28T00:19:00.923Z,17.2
2022-07-28T00:20:00.968Z,17.3
2022-07-28T00:21:01.028Z,17.4
2022-07-28T00:22:00.080Z,17.5
2022-07-28T00:23:00.143Z,17.3
2022-07-28T00:24:00.187Z,17.2
2022-07-28T00:25:00.245Z,17.1
2022-07-28T00:26:00.295Z,17
2022-07-28T00:27:00.345Z,17.2
2022-07-28T00:28:00.395Z,17.3
2022-07-28T00:29:00.442Z,17.4
2022-07-28T00:30:00.499Z,17.2
2022-07-28T00:31:04.921Z,17
2022-07-28T00:32:00.619Z,17
2022-07-28T00:33:00.836Z,17.2
2022-07-28T00:34:00.888Z,17.3
2022-07-28T00:35:00.949Z,17.3
2022-07-28T00:36:00.481Z,17
2022-07-28T00:37:00.544Z,16.8
2022-07-28T00:38:01.106Z,16.8
2022-07-28T00:39:00.323Z,16.7
2022-07-28T00:40:00.536Z,16.9
2022-07-28T00:41:00.593Z,17
2022-07-28T00:42:00.641Z,17.1
2022-07-28T00:43:00.691Z,16.9
2022-07-28T00:44:00.738Z,16.7
2022-07-28T00:45:00.819Z,16.8
2022-07-28T00:46:00.876Z,16.9
2022-07-28T00:47:00.981Z,17
2022-07-28T00:48:00.086Z,17
2022-07-28T00:49:00.214Z,16.8
2022-07-28T00:50:00.308Z,16.6
2022-07-28T00:51:00.357Z,16.6
2022-07-28T00:52:00.405Z,16.6
2022-07-28T00:53:00.460Z,16.8
2022-07-28T00:54:00.510Z,16.9
2022-07-28T00:55:00.560Z,16.8
2022-07-28T00:56:02.966Z,16.7
2022-07-28T00:57:00.607Z,16.6
2022-07-28T00:58:00.655Z,16.5
2022-07-28T00:59:00.718Z,16.7
2022-07-28T01:00:00.772Z,16.8
2022-07-28T01:01:00.819Z,16.9
2022-07-28T01:02:00.965Z,16.7
2022-07-28T01:03:00.138Z,16.5
2022-07-28T01:04:00.241Z,16.4
2022-07-28T01:05:00.295Z,16.5
2022-07-28T01:06:00.359Z,16.7
2022-07-28T01:07:00.408Z,16.8
2022-07-28T01:08:00.458Z,16.7
2022-07-28T01:09:00.518Z,16.5
2022-07-28T01:10:00.587Z,16.4
2022-07-28T01:11:00.654Z,16.6
2022-07-28T01:12:00.702Z,16.7
2022-07-28T01:13:00.750Z,16.7
2022-07-28T01:14:00.807Z,16.6
2022-07-28T01:15:00.040Z,16.5
2022-07-28T01:16:00.209Z,16.3
2022-07-28T01:17:00.312Z,16.4
2022-07-28T01:18:00.374Z,16.6
2022-07-28T01:19:00.424Z,16.7
2022-07-28T01:20:00.473Z,16.8
2022-07-28T01:21:00.541Z,16.6
2022-07-28T01:22:00.592Z,16.5
2022-07-28T01:23:00.656Z,16.4
2022-07-28T01:24:00.704Z,16.5
2022-07-28T01:25:00.758Z,16.6
2022-07-28T01:26:00.808Z,16.6
2022-07-28T01:27:00.887Z,16.4
2022-07-28T01:27:59.956Z,16.3
2022-07-28T01:29:00.005Z,16.1
2022-07-28T01:30:00.067Z,16.2
2022-07-28T01:31:00.164Z,16.3
2022-07-28T01:32:00.237Z,16.4
2022-07-28T01:33:00.286Z,16.3
2022-07-28T01:34:00.338Z,16.2
2022-07-28T01:35:00.388Z,16.2
2022-07-28T01:36:00.403Z,16.2
2022-07-28T01:37:00.458Z,16.3
2022-07-28T01:38:00.510Z,16.4
2022-07-28T01:39:00.560Z,16.5
2022-07-28T01:40:00.610Z,16.2
2022-07-28T01:41:00.659Z,16
2022-07-28T01:42:00.725Z,15.8
2022-07-28T01:43:00.775Z,15.9
2022-07-28T01:44:00.824Z,16.1
2022-07-28T01:44:59.874Z,16.3
2022-07-28T01:45:59.970Z,16.2
2022-07-28T01:47:00.074Z,16.2
2022-07-28T01:48:00.172Z,16.2
2022-07-28T01:49:00.312Z,16.2
2022-07-28T01:50:00.415Z,16.4
2022-07-28T01:51:00.483Z,16.5
2022-07-28T01:52:00.541Z,16.2
2022-07-28T01:53:00.603Z,15.9
2022-07-28T01:54:00.656Z,15.9
2022-07-28T01:55:00.708Z,16.1
2022-07-28T01:56:00.758Z,16.2
2022-07-28T01:57:00.826Z,16.3
2022-07-28T01:57:59.871Z,16.2
2022-07-28T01:58:59.920Z,15.9
2022-07-28T01:59:59.973Z,15.8
2022-07-28T02:01:00.025Z,15.8
2022-07-28T02:02:00.150Z,15.9
2022-07-28T02:03:00.309Z,16.1
2022-07-28T02:04:00.360Z,16.1
2022-07-28T02:05:00.481Z,16
2022-07-28T02:06:00.568Z,15.8
2022-07-28T02:07:00.625Z,15.8
2022-07-28T02:08:00.676Z,15.9
2022-07-28T02:09:00.741Z,16
2022-07-28T02:10:00.803Z,16.1
2022-07-28T02:10:59.853Z,16.1
2022-07-28T02:11:59.915Z,16.1
2022-07-28T02:12:59.969Z,15.9
2022-07-28T02:14:00.027Z,16
2022-07-28T02:15:00.396Z,16.1
2022-07-28T02:16:00.497Z,16.1
2022-07-28T02:17:00.573Z,16.1
2022-07-28T02:18:00.622Z,15.8
2022-07-28T02:19:00.048Z,15.8
2022-07-28T02:20:00.147Z,15.9
2022-07-28T02:21:00.222Z,16
2022-07-28T02:22:00.270Z,16.1
2022-07-28T02:23:00.322Z,16
2022-07-28T02:24:00.384Z,15.9
2022-07-28T02:25:00.432Z,15.7
2022-07-28T02:26:00.488Z,15.8
2022-07-28T02:27:00.682Z,15.9
2022-07-28T02:28:00.741Z,16
2022-07-28T02:28:59.796Z,15.9
2022-07-28T02:29:59.848Z,15.7
2022-07-28T02:30:59.927Z,15.6
2022-07-28T02:32:00.035Z,15.7
2022-07-28T02:32:59.926Z,15.9
2022-07-28T02:34:02.117Z,16
2022-07-28T02:35:00.271Z,16
2022-07-28T02:36:00.328Z,15.8
2022-07-28T02:37:00.495Z,15.6
2022-07-28T02:38:00.475Z,15.6
2022-07-28T02:39:00.538Z,15.8
2022-07-28T02:40:00.867Z,15.8
2022-07-28T02:40:59.979Z,15.8
2022-07-28T02:42:00.037Z,15.5
2022-07-28T02:43:00.092Z,15.4
2022-07-28T02:44:00.165Z,15.6
2022-07-28T02:45:00.237Z,15.7
2022-07-28T02:46:00.366Z,15.8
2022-07-28T02:47:00.424Z,15.8
2022-07-28T02:48:00.472Z,15.7
2022-07-28T02:49:00.613Z,15.5
2022-07-28T02:50:00.702Z,15.6
2022-07-28T02:50:59.766Z,15.8
2022-07-28T02:51:59.834Z,15.9
2022-07-28T02:52:59.897Z,15.8
2022-07-28T02:53:59.961Z,15.6
2022-07-28T02:55:00.011Z,15.5
2022-07-28T02:56:00.070Z,15.6
2022-07-28T02:57:00.127Z,15.7
2022-07-28T02:58:00.178Z,15.8
2022-07-28T02:59:00.227Z,15.7
2022-07-28T03:00:00.278Z,15.4
2022-07-28T03:01:00.366Z,15.3
2022-07-28T03:02:00.634Z,15.4
2022-07-28T03:02:59.755Z,15.6
2022-07-28T03:03:59.807Z,15.7
2022-07-28T03:04:59.926Z,15.7
2022-07-28T03:06:00.036Z,15.5
2022-07-28T03:07:00.084Z,15.3
2022-07-28T03:08:00.146Z,15.4
2022-07-28T03:09:00.200Z,15.6
2022-07-28T03:10:00.235Z,15.7
2022-07-28T03:11:00.285Z,15.6
2022-07-28T03:12:00.334Z,15.5
2022-07-28T03:13:00.389Z,15.3
2022-07-28T03:14:01.942Z,15.2
2022-07-28T03:15:00.348Z,15.2
2022-07-28T03:16:00.398Z,15.4
2022-07-28T03:17:00.494Z,15.5
2022-07-28T03:18:00.574Z,15.5
2022-07-28T03:19:00.639Z,15.4
2022-07-28T03:19:59.688Z,15.2
2022-07-28T03:20:59.736Z,15.1
2022-07-28T03:21:59.789Z,15.4
2022-07-28T03:22:59.839Z,15.4
2022-07-28T03:23:59.890Z,15.3
2022-07-28T03:24:59.939Z,15.2
2022-07-28T03:26:00.011Z,15.2
2022-07-28T03:27:00.081Z,15.2
2022-07-28T03:28:00.138Z,15.4
2022-07-28T03:29:00.380Z,15.5
2022-07-28T03:30:03.542Z,15.6
2022-07-28T03:31:00.492Z,15.4
2022-07-28T03:32:00.578Z,15.2
2022-07-28T03:32:59.628Z,15.1
2022-07-28T03:33:59.686Z,15.3
2022-07-28T03:34:59.744Z,15.5
2022-07-28T03:35:59.795Z,15.5
2022-07-28T03:36:59.845Z,15.3
2022-07-28T03:37:59.914Z,15.2
2022-07-28T03:38:59.976Z,15.3
2022-07-28T03:40:00.025Z,15.5
2022-07-28T03:41:00.081Z,15.5
2022-07-28T03:42:00.127Z,15.5
2022-07-28T03:43:00.177Z,15.4
2022-07-28T03:44:00.227Z,15.4
2022-07-28T03:45:00.279Z,15.2
2022-07-28T03:46:00.396Z,15.3
2022-07-28T03:47:00.468Z,15.5
2022-07-28T03:48:00.518Z,15.5
2022-07-28T03:49:00.642Z,15.4
2022-07-28T03:49:59.713Z,15.2
2022-07-28T03:50:59.770Z,15.2
2022-07-28T03:51:59.822Z,15.4
2022-07-28T03:52:59.873Z,15.5
2022-07-28T03:53:59.935Z,15.5
2022-07-28T03:55:00.004Z,15.3
2022-07-28T03:56:00.053Z,15.3
2022-07-28T03:57:00.102Z,15.3
2022-07-28T03:58:00.154Z,15.4
2022-07-28T03:59:00.205Z,15.5
2022-07-28T04:00:00.277Z,15.5
2022-07-28T04:01:00.370Z,15.3
2022-07-28T04:02:00.516Z,15.2
2022-07-28T04:02:59.590Z,15.2
2022-07-28T04:03:59.655Z,15.4
2022-07-28T04:04:59.702Z,15.5
2022-07-28T04:05:59.753Z,15.3
2022-07-28T04:06:59.804Z,15.1
2022-07-28T04:07:59.856Z,15
2022-07-28T04:08:59.905Z,15
2022-07-28T04:09:59.954Z,15.2
2022-07-28T04:11:00.002Z,15.3
2022-07-28T04:12:00.086Z,15.3
2022-07-28T04:13:00.152Z,15.2
2022-07-28T04:14:00.200Z,15
2022-07-28T04:15:00.524Z,15
2022-07-28T04:15:59.584Z,15.2
2022-07-28T04:16:59.682Z,15.3
2022-07-28T04:17:59.767Z,15.3
2022-07-28T04:18:59.815Z,15.1
2022-07-28T04:19:59.875Z,15.1
2022-07-28T04:20:59.934Z,15.1
2022-07-28T04:21:59.984Z,15.3
2022-07-28T04:23:00.035Z,15.4
2022-07-28T04:24:02.040Z,15.4
2022-07-28T04:25:00.108Z,15.2
2022-07-28T04:26:00.172Z,15.1
2022-07-28T04:27:00.236Z,15
2022-07-28T04:28:00.284Z,15.2
2022-07-28T04:29:03.174Z,15.4
2022-07-28T04:30:00.344Z,15.3
2022-07-28T04:31:00.445Z,15.2
2022-07-28T04:31:59.525Z,15.1
2022-07-28T04:32:59.718Z,15.1
2022-07-28T04:33:59.776Z,15.3
2022-07-28T04:34:59.826Z,15.4
2022-07-28T04:35:59.886Z,15.4
2022-07-28T04:36:59.942Z,15.2
2022-07-28T04:37:59.990Z,15.1
2022-07-28T04:39:00.042Z,15.2
2022-07-28T04:40:00.113Z,15.4
2022-07-28T04:41:00.216Z,15.5
2022-07-28T04:42:00.268Z,15.6
2022-07-28T04:43:00.323Z,15.5
2022-07-28T04:44:00.384Z,15.4
2022-07-28T04:45:00.437Z,15.4
2022-07-28T04:45:59.535Z,15.5
2022-07-28T04:46:59.621Z,15.6
2022-07-28T04:47:59.687Z,15.6
2022-07-28T04:48:59.830Z,15.4
2022-07-28T04:49:59.943Z,15.3
2022-07-28T04:50:59.991Z,15.3
2022-07-28T04:52:00.037Z,15.5
2022-07-28T04:53:00.137Z,15.7
2022-07-28T04:54:00.203Z,15.7
2022-07-28T04:55:00.255Z,15.6
2022-07-28T04:56:00.320Z,15.5
2022-07-28T04:57:00.318Z,15.5
2022-07-28T04:58:00.325Z,15.6
2022-07-28T04:59:00.374Z,15.7
2022-07-28T05:00:00.385Z,15.8
2022-07-28T05:00:59.546Z,15.7
2022-07-28T05:02:00.829Z,15.7
2022-07-28T05:02:59.889Z,15.6
2022-07-28T05:03:59.938Z,15.8
2022-07-28T05:05:00.071Z,15.9
2022-07-28T05:06:00.209Z,15.9
2022-07-28T05:07:00.271Z,15.7
2022-07-28T05:08:00.318Z,15.8
2022-07-28T05:09:00.379Z,15.7
2022-07-28T05:09:59.441Z,15.9
2022-07-28T05:10:59.492Z,16
2022-07-28T05:11:59.555Z,16.1
2022-07-28T05:12:59.609Z,16
2022-07-28T05:13:59.660Z,15.8
2022-07-28T05:14:59.938Z,15.9
2022-07-28T05:15:59.986Z,16.1
2022-07-28T05:17:00.124Z,16.2
2022-07-28T05:18:00.301Z,16.3
2022-07-28T05:19:00.362Z,16.2
2022-07-28T05:19:59.416Z,16.1
2022-07-28T05:21:00.049Z,16.1
2022-07-28T05:22:00.106Z,16.2
2022-07-28T05:23:00.157Z,16.4
2022-07-28T05:24:00.206Z,16.4
2022-07-28T05:25:00.256Z,16.3
2022-07-28T05:26:00.309Z,16.2
2022-07-28T05:27:00.357Z,16.2
2022-07-28T05:27:59.408Z,16.3
2022-07-28T05:28:59.478Z,16.4
2022-07-28T05:29:59.526Z,16.5
2022-07-28T05:30:59.588Z,16.3
2022-07-28T05:31:59.694Z,16.2
2022-07-28T05:32:59.773Z,16.2
2022-07-28T05:33:59.856Z,16.3
2022-07-28T05:34:59.915Z,16.4
2022-07-28T05:35:59.965Z,16.5
2022-07-28T05:37:00.028Z,16.4
2022-07-28T05:37:59.448Z,16.4
2022-07-28T05:38:59.512Z,16.5
2022-07-28T05:39:59.576Z,16.5
2022-07-28T05:40:59.624Z,16.7
2022-07-28T05:41:59.680Z,16.7
2022-07-28T05:42:59.743Z,16.8
2022-07-28T05:43:59.807Z,16.7
2022-07-28T05:44:59.870Z,16.7
2022-07-28T05:45:59.946Z,16.7
2022-07-28T05:47:00.030Z,16.7
2022-07-28T05:48:00.147Z,16.8
2022-07-28T05:49:00.286Z,16.9
2022-07-28T05:49:59.366Z,16.9
2022-07-28T05:50:59.417Z,16.8
2022-07-28T05:51:59.479Z,16.8
2022-07-28T05:52:59.527Z,16.9
2022-07-28T05:53:59.583Z,17
2022-07-28T05:54:59.647Z,17
2022-07-28T05:56:01.642Z,16.9
2022-07-28T05:56:59.704Z,16.9
2022-07-28T05:57:59.754Z,17
2022-07-28T05:58:59.810Z,17
2022-07-28T05:59:59.871Z,17.1
2022-07-28T06:01:00.046Z,17.1
2022-07-28T06:02:00.298Z,17
2022-07-28T06:02:59.367Z,17
2022-07-28T06:04:17.007Z,17
2022-07-28T06:04:59.428Z,17.2
2022-07-28T06:06:14.283Z,17.3
2022-07-28T06:06:59.498Z,17.2
2022-07-28T06:07:59.549Z,17
2022-07-28T06:08:59.599Z,16.9
2022-07-28T06:09:59.648Z,17
2022-07-28T06:10:59.702Z,17.1
2022-07-28T06:11:59.753Z,17.2
2022-07-28T06:12:59.805Z,17.2
2022-07-28T06:13:59.879Z,17.2
2022-07-28T06:14:59.933Z,17.1
2022-07-28T06:16:00.211Z,17.2
2022-07-28T06:16:59.313Z,17.3
2022-07-28T06:17:59.385Z,17.4
2022-07-28T06:18:59.450Z,17.4
2022-07-28T06:19:59.513Z,17.5
2022-07-28T06:20:59.576Z,17.4
2022-07-28T06:21:59.628Z,17.4
2022-07-28T06:22:59.692Z,17.5
2022-07-28T06:23:59.757Z,17.6
2022-07-28T06:24:59.807Z,17.6
2022-07-28T06:25:59.857Z,17.5
2022-07-28T06:26:59.910Z,17.4
2022-07-28T06:27:59.958Z,17.4
2022-07-28T06:29:00.022Z,17.5
2022-07-28T06:30:00.088Z,17.7
2022-07-28T06:31:00.162Z,17.8
2022-07-28T06:32:00.304Z,17.7
2022-07-28T06:32:59.228Z,17.7
2022-07-28T06:33:59.283Z,17.7
2022-07-28T06:34:59.335Z,17.7
2022-07-28T06:35:59.395Z,17.8
2022-07-28T06:36:59.461Z,17.9
2022-07-28T06:37:59.668Z,17.9
2022-07-28T06:38:59.716Z,17.7
2022-07-28T06:39:59.769Z,17.6
2022-07-28T06:40:59.834Z,17.7
2022-07-28T06:41:59.882Z,17.7
2022-07-28T06:42:59.930Z,17.8
2022-07-28T06:43:59.994Z,17.8
2022-07-28T06:45:00.043Z,17.8
2022-07-28T06:45:59.196Z,17.9
2022-07-28T06:46:59.279Z,18
2022-07-28T06:47:59.354Z,18.2
2022-07-28T06:48:59.507Z,18.2
2022-07-28T06:49:59.582Z,18.2
2022-07-28T06:50:59.871Z,18.1
2022-07-28T06:51:59.991Z,18.1
2022-07-28T06:53:00.041Z,18.2
2022-07-28T06:53:59.179Z,18.3
2022-07-28T06:54:59.761Z,18.3
2022-07-28T06:55:59.759Z,18.5
2022-07-28T06:57:00.120Z,18.4
2022-07-28T06:58:00.099Z,18.3
2022-07-28T06:59:00.144Z,18.3
2022-07-28T06:59:59.202Z,18.3
2022-07-28T07:00:59.335Z,18.3
2022-07-28T07:01:59.443Z,18.5
2022-07-28T07:03:00.680Z,18.6
2022-07-28T07:04:00.187Z,18.7
2022-07-28T07:04:59.291Z,18.5
2022-07-28T07:05:59.339Z,18.5
2022-07-28T07:06:59.392Z,18.7
2022-07-28T07:07:59.441Z,18.8
2022-07-28T07:08:59.489Z,18.9
2022-07-28T07:09:59.552Z,18.9
2022-07-28T07:10:59.609Z,18.9
2022-07-28T07:11:59.995Z,18.9
2022-07-28T07:12:59.583Z,18.8
2022-07-28T07:14:01.587Z,18.8
2022-07-28T07:14:59.643Z,18.9
2022-07-28T07:15:59.810Z,18.9
2022-07-28T07:16:59.914Z,19
2022-07-28T07:17:59.960Z,19.2
2022-07-28T07:19:00.013Z,19.1
2022-07-28T07:20:00.066Z,19
2022-07-28T07:20:59.143Z,19.1
2022-07-28T07:21:59.201Z,19.1
2022-07-28T07:22:59.260Z,19.2
2022-07-28T07:23:59.322Z,19.3
2022-07-28T07:24:59.372Z,19.4
2022-07-28T07:25:59.422Z,19.3
2022-07-28T07:26:59.492Z,19.4
2022-07-28T07:27:59.542Z,19.5
2022-07-28T07:28:59.591Z,19.6
2022-07-28T07:29:59.658Z,19.7
2022-07-28T07:30:59.754Z,19.7
2022-07-28T07:31:59.847Z,19.8
2022-07-28T07:32:59.923Z,19.7
2022-07-28T07:33:59.971Z,19.7
2022-07-28T07:35:00.024Z,19.6
2022-07-28T07:36:00.091Z,19.6
2022-07-28T07:36:59.155Z,19.6
2022-07-28T07:37:59.230Z,19.8
2022-07-28T07:38:59.275Z,19.8
2022-07-28T07:39:59.320Z,19.7
2022-07-28T07:40:59.369Z,19.8
2022-07-28T07:41:59.421Z,19.8
2022-07-28T07:42:59.361Z,19.9
2022-07-28T07:43:59.415Z,20
2022-07-28T07:44:59.475Z,20.1
2022-07-28T07:45:59.525Z,20.1
2022-07-28T07:46:59.617Z,20.2
2022-07-28T07:47:59.695Z,20.2
2022-07-28T07:48:59.814Z,20.3
2022-07-28T07:50:03.004Z,20.4
2022-07-28T07:50:59.947Z,20.5
2022-07-28T07:52:00.010Z,20.7
2022-07-28T07:52:59.092Z,20.9
2022-07-28T07:53:59.147Z,21
2022-07-28T07:54:59.204Z,20.9
2022-07-28T07:55:59.255Z,20.9
2022-07-28T07:56:59.339Z,20.7
2022-07-28T07:57:59.389Z,20.7
2022-07-28T07:58:59.440Z,20.7
2022-07-28T07:59:59.491Z,20.8
2022-07-28T08:00:59.535Z,20.9
2022-07-28T08:01:59.659Z,20.9
2022-07-28T08:02:59.748Z,20.8
2022-07-28T08:03:59.838Z,20.6
2022-07-28T08:04:59.083Z,20.5
2022-07-28T08:05:59.215Z,20.5
2022-07-28T08:06:59.205Z,20.5
2022-07-28T08:07:59.271Z,20.6
2022-07-28T08:08:59.325Z,20.7
2022-07-28T08:09:59.401Z,20.7
2022-07-28T08:10:59.451Z,20.6
2022-07-28T08:11:59.503Z,20.6
2022-07-28T08:12:59.554Z,20.6
2022-07-28T08:13:59.609Z,20.8
2022-07-28T08:14:59.654Z,20.8
2022-07-28T08:16:02.057Z,20.9
2022-07-28T08:17:01.139Z,20.8
2022-07-28T08:18:01.212Z,20.9
2022-07-28T08:19:01.264Z,20.9
2022-07-28T08:20:01.310Z,21
2022-07-28T08:21:01.368Z,21.1
2022-07-28T08:22:01.417Z,21.2
2022-07-28T08:23:01.468Z,21.2
2022-07-28T08:24:01.517Z,21.2
2022-07-28T08:25:01.571Z,21.2
2022-07-28T08:26:01.622Z,21.3
2022-07-28T08:27:01.674Z,21.3
2022-07-28T08:28:01.736Z,21.5
2022-07-28T08:29:01.782Z,21.6
2022-07-28T08:30:01.838Z,21.6
2022-07-28T08:31:01.947Z,21.7
2022-07-28T08:32:01.050Z,21.8
2022-07-28T08:33:01.095Z,21.8
2022-07-28T08:34:01.153Z,21.8
2022-07-28T08:35:30.159Z,21.7
2022-07-28T08:36:01.208Z,21.8
2022-07-28T08:37:01.264Z,21.9
2022-07-28T08:38:01.317Z,22
2022-07-28T08:39:01.378Z,22
2022-07-28T08:40:01.439Z,22.1
2022-07-28T08:41:01.489Z,22
2022-07-28T08:42:01.535Z,22
2022-07-28T08:43:01.592Z,22.1
2022-07-28T08:44:01.643Z,22.2
2022-07-28T08:45:01.705Z,22.2
2022-07-28T08:46:00.941Z,22.4
2022-07-28T08:47:01.062Z,22.4
2022-07-28T08:48:09.577Z,22.4
2022-07-28T08:49:01.240Z,22.4
2022-07-28T08:50:01.339Z,22.5
2022-07-28T08:51:01.388Z,22.7
2022-07-28T08:52:01.440Z,23
2022-07-28T08:53:01.491Z,23.1
2022-07-28T08:54:01.558Z,23.2
2022-07-28T08:55:01.624Z,23.2
2022-07-28T08:56:01.685Z,23.2
2022-07-28T08:57:01.741Z,22.8
2022-07-28T08:58:01.790Z,22.7
2022-07-28T08:59:01.854Z,22.7
2022-07-28T09:00:00.904Z,22.9
2022-07-28T09:01:00.975Z,23.1
2022-07-28T09:02:01.105Z,23.4
2022-07-28T09:03:01.293Z,23.5
2022-07-28T09:04:01.372Z,23.5
2022-07-28T09:05:01.775Z,23.5
2022-07-28T09:06:01.842Z,23.7
2022-07-28T09:07:00.901Z,23.9
2022-07-28T09:08:00.953Z,23.9
2022-07-28T09:09:01.005Z,23.9
2022-07-28T09:10:02.617Z,24
2022-07-28T09:11:01.048Z,24.2
2022-07-28T09:12:01.097Z,24.1
2022-07-28T09:13:01.147Z,24.2
2022-07-28T09:14:01.200Z,24.2
2022-07-28T09:15:01.249Z,24.3
2022-07-28T09:16:01.670Z,24.4
2022-07-28T09:17:01.760Z,24.4
2022-07-28T09:18:01.829Z,24.5
2022-07-28T09:19:00.893Z,24.6
2022-07-28T09:20:00.943Z,24.6
2022-07-28T09:21:01.014Z,24.5
2022-07-28T09:22:01.076Z,24.4
2022-07-28T09:23:01.127Z,24.4
2022-07-28T09:24:01.204Z,24.2
2022-07-28T09:25:01.257Z,24.1
2022-07-28T09:26:01.309Z,24.2
2022-07-28T09:27:01.357Z,24.2
2022-07-28T09:28:01.407Z,24.2
2022-07-28T09:29:01.455Z,24.3
2022-07-28T09:30:01.518Z,24.3
2022-07-28T09:31:01.624Z,24.3
2022-07-28T09:32:01.766Z,24.3
2022-07-28T09:33:01.321Z,24.3
2022-07-28T09:34:01.379Z,24.3
2022-07-28T09:35:01.440Z,24.4
2022-07-28T09:36:02.171Z,24.5
2022-07-28T09:37:01.611Z,24.7
2022-07-28T09:38:01.660Z,24.8
2022-07-28T09:39:01.708Z,24.6
2022-07-28T09:40:03.976Z,24.4
2022-07-28T09:41:01.772Z,24.3
2022-07-28T09:42:00.843Z,24.2
2022-07-28T09:43:00.899Z,24.1
2022-07-28T09:44:00.952Z,24.1
2022-07-28T09:45:21.605Z,24.1
2022-07-28T09:46:01.037Z,24.2
2022-07-28T09:47:01.250Z,24.2
2022-07-28T09:48:01.672Z,24.4
2022-07-28T09:49:01.251Z,24.4
2022-07-28T09:50:01.573Z,24.2
2022-07-28T09:51:01.649Z,24.1
2022-07-28T09:52:01.701Z,24.2
2022-07-28T09:53:01.779Z,24.4
2022-07-28T09:54:00.827Z,24.6
2022-07-28T09:55:00.884Z,24.7
2022-07-28T09:56:00.946Z,24.7
2022-07-28T09:57:00.994Z,24.8
2022-07-28T09:58:01.046Z,25
2022-07-28T09:59:01.824Z,25
2022-07-28T10:00:00.934Z,25
2022-07-28T10:01:01.297Z,24.9
2022-07-28T10:02:02.296Z,24.8
2022-07-28T10:03:01.008Z,24.7
2022-07-28T10:04:13.787Z,24.6
2022-07-28T10:05:01.088Z,24.6
2022-07-28T10:06:01.157Z,24.6
2022-07-28T10:07:01.221Z,24.7
2022-07-28T10:08:01.271Z,24.9
2022-07-28T10:09:01.345Z,25
2022-07-28T10:10:01.568Z,25.1
2022-07-28T10:11:01.619Z,25.3
2022-07-28T10:12:01.670Z,25.4
2022-07-28T10:13:01.734Z,25.4
2022-07-28T10:14:00.793Z,25.6
2022-07-28T10:15:00.863Z,25.7
2022-07-28T10:16:01.105Z,25.8
2022-07-28T10:17:05.723Z,26
2022-07-28T10:18:01.189Z,25.8
2022-07-28T10:19:01.238Z,25.5
2022-07-28T10:20:01.311Z,25.1
2022-07-28T10:21:01.368Z,25.1
2022-07-28T10:22:01.423Z,25.1
2022-07-28T10:23:01.471Z,25.4
2022-07-28T10:24:01.521Z,25.6
2022-07-28T10:25:01.571Z,25.9
2022-07-28T10:26:01.626Z,26
2022-07-28T10:27:01.688Z,26.1
2022-07-28T10:28:00.739Z,25.8
2022-07-28T10:29:00.790Z,25.4
2022-07-28T10:30:00.842Z,25.2
2022-07-28T10:31:00.938Z,25.1
2022-07-28T10:32:01.059Z,25.1
2022-07-28T10:33:01.107Z,25.2
2022-07-28T10:34:01.163Z,25.4
2022-07-28T10:35:01.229Z,25.5
2022-07-28T10:36:01.326Z,25.5
2022-07-28T10:37:01.385Z,25.7
2022-07-28T10:38:01.476Z,25.9
2022-07-28T10:39:01.528Z,26.1
2022-07-28T10:40:04.207Z,26.1
2022-07-28T10:41:01.627Z,26.2
2022-07-28T10:42:01.692Z,26.2
2022-07-28T10:43:00.764Z,26.3
2022-07-28T10:44:00.821Z,26.5
2022-07-28T10:45:00.885Z,26.6
2022-07-28T10:46:05.912Z,26.7
2022-07-28T10:47:00.980Z,27.1
2022-07-28T10:48:01.109Z,27.2
2022-07-28T10:49:03.596Z,27.2
2022-07-28T10:50:01.183Z,27.1
2022-07-28T10:51:01.244Z,26.9
2022-07-28T10:52:06.585Z,26.9
2022-07-28T10:53:01.321Z,26.8
2022-07-28T10:54:01.384Z,26.9
2022-07-28T10:55:01.457Z,27
2022-07-28T10:56:01.508Z,27.1
2022-07-28T10:57:04.676Z,27.2
2022-07-28T10:58:01.847Z,27.3
2022-07-28T10:59:04.833Z,27.2
2022-07-28T11:00:12.065Z,27
2022-07-28T11:01:05.818Z,27.1
2022-07-28T11:02:01.663Z,27.1
2022-07-28T11:03:01.021Z,27.4
2022-07-28T11:04:01.234Z,27.7
2022-07-28T11:05:01.314Z,27.8
2022-07-28T11:06:01.362Z,27.9
2022-07-28T11:07:01.412Z,27.9
2022-07-28T11:08:01.457Z,27.9
2022-07-28T11:09:01.513Z,28
2022-07-28T11:10:01.572Z,28.3
2022-07-28T11:11:09.275Z,28.7
2022-07-28T11:12:00.625Z,28.9
2022-07-28T11:13:00.688Z,28.8
2022-07-28T11:14:00.695Z,28.7
2022-07-28T11:15:15.970Z,28.4
2022-07-28T11:16:00.757Z,28
2022-07-28T11:17:01.175Z,27.8
2022-07-28T11:18:01.284Z,27.7
2022-07-28T11:19:01.347Z,27.8
2022-07-28T11:20:26.612Z,27.9
2022-07-28T11:21:01.354Z,28
2022-07-28T11:22:01.402Z,28.1
2022-07-28T11:23:01.452Z,28.2
2022-07-28T11:24:01.514Z,28.2
2022-07-28T11:25:00.852Z,28.3
2022-07-28T11:26:00.868Z,28.4
2022-07-28T11:27:03.985Z,28.4
2022-07-28T11:28:00.931Z,28.6
2022-07-28T11:29:00.982Z,28.8
2022-07-28T11:30:01.043Z,28.7
2022-07-28T11:31:00.782Z,28.4
2022-07-28T11:32:00.850Z,28.1
2022-07-28T11:33:00.898Z,28
2022-07-28T11:34:00.944Z,27.8
2022-07-28T11:35:01.003Z,27.6
2022-07-28T11:36:02.270Z,27.5
2022-07-28T11:37:01.397Z,27.2
2022-07-28T11:38:01.714Z,26.9
2022-07-28T11:39:00.850Z,26.9
2022-07-28T11:40:00.904Z,27.3
2022-07-28T11:41:00.952Z,27.5
2022-07-28T11:42:01.003Z,27.7
2022-07-28T11:43:01.064Z,28.1
2022-07-28T11:44:00.694Z,28.1
2022-07-28T11:45:00.743Z,28.4
2022-07-28T11:46:01.458Z,28.8
2022-07-28T11:47:00.578Z,28.8
2022-07-28T11:48:00.631Z,28.8
2022-07-28T11:49:00.722Z,28.8
2022-07-28T11:50:00.800Z,28.6
2022-07-28T11:51:00.852Z,29
2022-07-28T11:52:00.910Z,29.2
2022-07-28T11:53:00.609Z,29.5
2022-07-28T11:54:00.670Z,29.6
2022-07-28T11:55:00.722Z,29.5
2022-07-28T11:56:02.601Z,29.1
2022-07-28T11:57:00.789Z,29.3
2022-07-28T11:58:00.836Z,29.7
2022-07-28T11:59:00.891Z,30
2022-07-28T12:00:00.943Z,30.3
2022-07-28T12:01:01.007Z,30.4
2022-07-28T12:02:01.102Z,30.7
2022-07-28T12:03:01.068Z,30.8
2022-07-28T12:04:01.299Z,30.7
2022-07-28T12:05:01.414Z,30.8
2022-07-28T12:06:01.102Z,31.2
2022-07-28T12:07:01.339Z,31.2
2022-07-28T12:08:00.879Z,31
2022-07-28T12:09:00.935Z,31
2022-07-28T12:10:01.003Z,31.3
2022-07-28T12:11:01.060Z,31.6
2022-07-28T12:12:01.126Z,31.4
2022-07-28T12:13:01.176Z,31
2022-07-28T12:14:01.226Z,30.8
2022-07-28T12:15:06.501Z,30.4
2022-07-28T12:16:01.289Z,30.8
2022-07-28T12:17:01.503Z,31.4
2022-07-28T12:18:01.096Z,31.8
2022-07-28T12:19:00.714Z,31.8
2022-07-28T12:20:00.720Z,32
2022-07-28T12:21:05.029Z,32.6
2022-07-28T12:22:00.785Z,33.1
2022-07-28T12:23:01.013Z,33.3
2022-07-28T12:24:01.376Z,33.1
2022-07-28T12:25:01.411Z,32.8
2022-07-28T12:26:01.419Z,32.7
2022-07-28T12:27:01.329Z,32.9
2022-07-28T12:28:02.206Z,32.3
2022-07-28T12:29:00.930Z,31.7
2022-07-28T12:30:01.088Z,31.5
2022-07-28T12:31:01.138Z,31.9
2022-07-28T12:32:01.266Z,32.2
2022-07-28T12:33:01.342Z,31.7
2022-07-28T12:34:01.389Z,31.8
2022-07-28T12:35:01.436Z,31.9
2022-07-28T12:36:00.493Z,31.8
2022-07-28T12:37:00.565Z,32.5
2022-07-28T12:38:00.619Z,33.2
2022-07-28T12:39:00.667Z,33.4
2022-07-28T12:40:00.723Z,33.6
2022-07-28T12:41:00.774Z,34
2022-07-28T12:42:00.841Z,33.9
2022-07-28T12:43:00.905Z,34.1
2022-07-28T12:44:00.970Z,35.2
2022-07-28T12:45:00.979Z,35.7
2022-07-28T12:46:01.169Z,35.9
2022-07-28T12:47:01.281Z,36.1
2022-07-28T12:48:01.329Z,35.5
2022-07-28T12:49:01.497Z,35.3
2022-07-28T12:50:05.021Z,35.9
2022-07-28T12:51:00.596Z,36.5
2022-07-28T12:52:00.659Z,36.4
2022-07-28T12:53:00.707Z,36.9
2022-07-28T12:54:00.756Z,37.3
2022-07-28T12:55:00.807Z,37.5
2022-07-28T12:56:00.856Z,37.6
2022-07-28T12:57:00.910Z,37
2022-07-28T12:58:00.973Z,37
2022-07-28T12:59:01.024Z,36.7
2022-07-28T13:00:01.079Z,36.6
2022-07-28T13:01:01.166Z,36.1
2022-07-28T13:02:01.335Z,35.5
2022-07-28T13:03:00.413Z,34.1
2022-07-28T13:04:00.463Z,33.2
2022-07-28T13:05:00.514Z,32.5
2022-07-28T13:06:00.564Z,32
2022-07-28T13:07:00.614Z,32.1
2022-07-28T13:08:02.087Z,32.4
2022-07-28T13:09:00.390Z,32.9
2022-07-28T13:10:00.853Z,33.5
2022-07-28T13:11:01.041Z,33.4
2022-07-28T13:12:01.090Z,32.9
2022-07-28T13:13:01.146Z,32.4
2022-07-28T13:14:01.225Z,31.8
2022-07-28T13:15:01.290Z,31.7
2022-07-28T13:16:01.397Z,31.5
2022-07-28T13:17:00.580Z,31.4
2022-07-28T13:18:00.792Z,31.6
2022-07-28T13:19:00.866Z,31.4
2022-07-28T13:20:00.940Z,31.3
2022-07-28T13:21:00.990Z,31.2
2022-07-28T13:22:04.184Z,31.3